sensor_id;sensor_type;location;lat;lon;timestamp;temperature;humidity
21121;DHT22;12519;43.318;21.898;2023-10-13T00:02:43;16.8;84.0
21121;DHT22;12519;43.318;21.898;2023-10-13T00:07:20;16.7;84.0
21121;DHT22;12519;43.318;21.898;2023-10-13T00:11:56;16.7;84.0
21121;DHT22;12519;43.318;21.898;2023-10-13T00:16:35;16.5;85.0
21121;DHT22;12519;43.318;21.898;2023-10-13T00:21:13;16.5;85.0
21121;DHT22;12519;43.318;21.898;2023-10-13T00:25:53;16.3;86.0
21121;DHT22;12519;43.318;21.898;2023-10-13T00:30:30;16.3;86.0
21121;DHT22;12519;43.318;21.898;2023-10-13T00:35:07;16.1;86.0
21121;DHT22;12519;43.318;21.898;2023-10-13T00:39:45;16.1;86.0
21121;DHT22;12519;43.318;21.898;2023-10-13T00:44:22;15.9;87.0
21121;DHT22;12519;43.318;21.898;2023-10-13T00:48:59;15.9;87.0
21121;DHT22;12519;43.318;21.898;2023-10-13T00:53:42;15.9;87.0
21121;DHT22;12519;43.318;21.898;2023-10-13T00:58:19;15.8;87.0
21121;DHT22;12519;43.318;21.898;2023-10-13T01:03:00;15.8;87.0
21121;DHT22;12519;43.318;21.898;2023-10-13T01:07:37;15.7;87.0
21121;DHT22;12519;43.318;21.898;2023-10-13T01:12:14;15.7;87.0
21121;DHT22;12519;43.318;21.898;2023-10-13T01:16:50;15.5;87.0
21121;DHT22;12519;43.318;21.898;2023-10-13T01:21:27;15.5;87.0
21121;DHT22;12519;43.318;21.898;2023-10-13T01:26:04;15.3;88.0
21121;DHT22;12519;43.318;21.898;2023-10-13T01:30:40;15.3;88.0
21121;DHT22;12519;43.318;21.898;2023-10-13T01:35:17;15.2;88.0
21121;DHT22;12519;43.318;21.898;2023-10-13T01:39:54;15.2;88.0
21121;DHT22;12519;43.318;21.898;2023-10-13T01:44:30;15.2;89.0
21121;DHT22;12519;43.318;21.898;2023-10-13T01:49:06;15.2;89.0
21121;DHT22;12519;43.318;21.898;2023-10-13T01:53:43;15.2;89.0
21121;DHT22;12519;43.318;21.898;2023-10-13T01:58:19;15.0;89.0
21121;DHT22;12519;43.318;21.898;2023-10-13T02:02:55;15.0;89.0
21121;DHT22;12519;43.318;21.898;2023-10-13T02:07:31;14.8;90.0
21121;DHT22;12519;43.318;21.898;2023-10-13T02:12:08;14.8;90.0
21121;DHT22;12519;43.318;21.898;2023-10-13T02:16:45;14.8;90.0
21121;DHT22;12519;43.318;21.898;2023-10-13T02:21:21;14.8;90.0
21121;DHT22;12519;43.318;21.898;2023-10-13T02:25:59;14.7;90.0
21121;DHT22;12519;43.318;21.898;2023-10-13T02:30:37;14.7;90.0
21121;DHT22;12519;43.318;21.898;2023-10-13T02:35:18;14.9;90.0
21121;DHT22;12519;43.318;21.898;2023-10-13T02:39:55;14.9;90.0
21121;DHT22;12519;43.318;21.898;2023-10-13T02:44:32;15.1;89.0
21121;DHT22;12519;43.318;21.898;2023-10-13T02:49:10;15.1;89.0
21121;DHT22;12519;43.318;21.898;2023-10-13T02:53:47;15.1;89.0
21121;DHT22;12519;43.318;21.898;2023-10-13T02:58:24;15.0;89.0
21121;DHT22;12519;43.318;21.898;2023-10-13T03:03:01;15.0;89.0
21121;DHT22;12519;43.318;21.898;2023-10-13T03:07:39;14.9;89.0
21121;DHT22;12519;43.318;21.898;2023-10-13T03:12:17;14.9;89.0
21121;DHT22;12519;43.318;21.898;2023-10-13T03:16:56;14.7;90.0
21121;DHT22;12519;43.318;21.898;2023-10-13T03:21:38;14.7;90.0
21121;DHT22;12519;43.318;21.898;2023-10-13T03:26:14;14.5;90.0
21121;DHT22;12519;43.318;21.898;2023-10-13T03:30:51;14.4;90.0
21121;DHT22;12519;43.318;21.898;2023-10-13T03:35:27;14.4;90.0
21121;DHT22;12519;43.318;21.898;2023-10-13T03:40:05;14.4;90.0
21121;DHT22;12519;43.318;21.898;2023-10-13T03:44:48;14.4;90.0
21121;DHT22;12519;43.318;21.898;2023-10-13T03:49:25;14.4;90.0
21121;DHT22;12519;43.318;21.898;2023-10-13T03:54:02;14.4;90.0
21121;DHT22;12519;43.318;21.898;2023-10-13T03:58:40;14.4;90.0
21121;DHT22;12519;43.318;21.898;2023-10-13T04:12:38;14.8;90.0
21121;DHT22;12519;43.318;21.898;2023-10-13T04:17:16;14.8;90.0
21121;DHT22;12519;43.318;21.898;2023-10-13T04:21:53;14.8;90.0
21121;DHT22;12519;43.318;21.898;2023-10-13T04:26:29;14.8;90.0
21121;DHT22;12519;43.318;21.898;2023-10-13T04:31:05;14.8;90.0
21121;DHT22;12519;43.318;21.898;2023-10-13T04:35:41;14.8;90.0
21121;DHT22;12519;43.318;21.898;2023-10-13T04:40:21;14.8;90.0
21121;DHT22;12519;43.318;21.898;2023-10-13T04:44:57;14.7;90.0
21121;DHT22;12519;43.318;21.898;2023-10-13T04:49:40;14.7;90.0
21121;DHT22;12519;43.318;21.898;2023-10-13T04:54:16;14.6;90.0
21121;DHT22;12519;43.318;21.898;2023-10-13T04:58:53;14.6;90.0
21121;DHT22;12519;43.318;21.898;2023-10-13T05:03:29;14.6;90.0
21121;DHT22;12519;43.318;21.898;2023-10-13T05:08:06;14.6;90.0
21121;DHT22;12519;43.318;21.898;2023-10-13T05:12:43;14.5;90.0
21121;DHT22;12519;43.318;21.898;2023-10-13T05:17:20;14.5;90.0
21121;DHT22;12519;43.318;21.898;2023-10-13T05:21:56;14.4;90.0
21121;DHT22;12519;43.318;21.898;2023-10-13T05:26:33;14.4;90.0
21121;DHT22;12519;43.318;21.898;2023-10-13T05:31:10;15.0;90.0
21121;DHT22;12519;43.318;21.898;2023-10-13T05:35:47;15.0;90.0
21121;DHT22;12519;43.318;21.898;2023-10-13T05:40:23;15.0;90.0
21121;DHT22;12519;43.318;21.898;2023-10-13T05:45:00;15.5;91.0
21121;DHT22;12519;43.318;21.898;2023-10-13T05:49:37;15.5;91.0
21121;DHT22;12519;43.318;21.898;2023-10-13T05:54:14;15.2;89.0
21121;DHT22;12519;43.318;21.898;2023-10-13T05:58:51;15.2;89.0
21121;DHT22;12519;43.318;21.898;2023-10-13T06:03:28;15.0;88.0
21121;DHT22;12519;43.318;21.898;2023-10-13T06:08:05;15.0;88.0
21121;DHT22;12519;43.318;21.898;2023-10-13T06:12:42;14.9;89.0
21121;DHT22;12519;43.318;21.898;2023-10-13T06:17:18;14.9;89.0
21121;DHT22;12519;43.318;21.898;2023-10-13T06:21:54;14.8;89.0
21121;DHT22;12519;43.318;21.898;2023-10-13T06:26:31;14.8;89.0
21121;DHT22;12519;43.318;21.898;2023-10-13T06:31:12;15.9;89.0
21121;DHT22;12519;43.318;21.898;2023-10-13T06:35:50;15.9;89.0
21121;DHT22;12519;43.318;21.898;2023-10-13T06:40:26;15.9;89.0
21121;DHT22;12519;43.318;21.898;2023-10-13T06:45:06;17.0;88.0
21121;DHT22;12519;43.318;21.898;2023-10-13T06:49:43;17.0;88.0
21121;DHT22;12519;43.318;21.898;2023-10-13T06:54:20;16.7;86.0
21121;DHT22;12519;43.318;21.898;2023-10-13T06:58:57;16.7;86.0
21121;DHT22;12519;43.318;21.898;2023-10-13T07:03:33;16.4;85.0
21121;DHT22;12519;43.318;21.898;2023-10-13T07:08:12;16.4;85.0
21121;DHT22;12519;43.318;21.898;2023-10-13T07:12:48;16.4;86.0
21121;DHT22;12519;43.318;21.898;2023-10-13T07:17:24;16.4;86.0
21121;DHT22;12519;43.318;21.898;2023-10-13T07:22:02;16.3;86.0
21121;DHT22;12519;43.318;21.898;2023-10-13T07:26:39;16.3;86.0
21121;DHT22;12519;43.318;21.898;2023-10-13T07:31:16;16.8;86.0
21121;DHT22;12519;43.318;21.898;2023-10-13T07:36:06;16.8;86.0
21121;DHT22;12519;43.318;21.898;2023-10-13T07:40:44;16.8;86.0
21121;DHT22;12519;43.318;21.898;2023-10-13T07:45:21;17.4;85.0
21121;DHT22;12519;43.318;21.898;2023-10-13T07:49:57;17.4;85.0
21121;DHT22;12519;43.318;21.898;2023-10-13T07:54:34;17.8;85.0
21121;DHT22;12519;43.318;21.898;2023-10-13T07:59:10;17.8;85.0
21121;DHT22;12519;43.318;21.898;2023-10-13T08:03:48;18.3;84.0
21121;DHT22;12519;43.318;21.898;2023-10-13T08:08:25;18.3;84.0
21121;DHT22;12519;43.318;21.898;2023-10-13T08:13:03;18.9;82.0
21121;DHT22;12519;43.318;21.898;2023-10-13T08:17:40;18.9;82.0
21121;DHT22;12519;43.318;21.898;2023-10-13T08:22:17;19.5;81.0
21121;DHT22;12519;43.318;21.898;2023-10-13T08:26:54;19.5;81.0
21121;DHT22;12519;43.318;21.898;2023-10-13T08:31:33;19.9;80.0
21121;DHT22;12519;43.318;21.898;2023-10-13T08:36:09;19.9;80.0
21121;DHT22;12519;43.318;21.898;2023-10-13T08:40:50;19.9;80.0
21121;DHT22;12519;43.318;21.898;2023-10-13T08:45:28;20.3;78.0
21121;DHT22;12519;43.318;21.898;2023-10-13T08:50:09;20.3;78.0
21121;DHT22;12519;43.318;21.898;2023-10-13T08:54:46;20.4;78.0
21121;DHT22;12519;43.318;21.898;2023-10-13T08:59:22;20.4;78.0
21121;DHT22;12519;43.318;21.898;2023-10-13T09:04:01;20.5;77.0
21121;DHT22;12519;43.318;21.898;2023-10-13T09:08:41;20.5;77.0
21121;DHT22;12519;43.318;21.898;2023-10-13T09:13:18;20.8;76.0
21121;DHT22;12519;43.318;21.898;2023-10-13T09:17:55;20.8;76.0
21121;DHT22;12519;43.318;21.898;2023-10-13T09:22:31;21.1;76.0
21121;DHT22;12519;43.318;21.898;2023-10-13T09:27:09;21.1;76.0
21121;DHT22;12519;43.318;21.898;2023-10-13T09:32:00;21.5;76.0
21121;DHT22;12519;43.318;21.898;2023-10-13T09:36:39;21.5;76.0
21121;DHT22;12519;43.318;21.898;2023-10-13T09:41:16;21.9;76.0
21121;DHT22;12519;43.318;21.898;2023-10-13T09:46:00;21.9;76.0
21121;DHT22;12519;43.318;21.898;2023-10-13T09:50:43;21.9;76.0
21121;DHT22;12519;43.318;21.898;2023-10-13T09:55:36;22.3;75.0
21121;DHT22;12519;43.318;21.898;2023-10-13T10:00:23;22.3;75.0
21121;DHT22;12519;43.318;21.898;2023-10-13T10:05:08;22.7;74.0
21121;DHT22;12519;43.318;21.898;2023-10-13T10:09:44;22.7;74.0
21121;DHT22;12519;43.318;21.898;2023-10-13T10:15:07;22.6;73.0
21121;DHT22;12519;43.318;21.898;2023-10-13T10:20:07;22.6;73.0
21121;DHT22;12519;43.318;21.898;2023-10-13T10:24:57;22.6;73.0
21121;DHT22;12519;43.318;21.898;2023-10-13T10:29:35;22.6;73.0
21121;DHT22;12519;43.318;21.898;2023-10-13T10:34:14;22.8;73.0
21121;DHT22;12519;43.318;21.898;2023-10-13T10:38:56;22.8;73.0
21121;DHT22;12519;43.318;21.898;2023-10-13T10:43:37;23.1;73.0
21121;DHT22;12519;43.318;21.898;2023-10-13T10:48:15;23.1;73.0
21121;DHT22;12519;43.318;21.898;2023-10-13T10:52:54;23.2;72.0
21121;DHT22;12519;43.318;21.898;2023-10-13T10:57:31;23.2;72.0
21121;DHT22;12519;43.318;21.898;2023-10-13T11:02:08;23.3;71.0
21121;DHT22;12519;43.318;21.898;2023-10-13T11:06:50;23.3;71.0
21121;DHT22;12519;43.318;21.898;2023-10-13T11:11:33;23.5;71.0
21121;DHT22;12519;43.318;21.898;2023-10-13T11:16:09;23.5;71.0
21121;DHT22;12519;43.318;21.898;2023-10-13T11:20:46;23.5;71.0
21121;DHT22;12519;43.318;21.898;2023-10-13T11:25:30;23.6;70.0
21121;DHT22;12519;43.318;21.898;2023-10-13T11:30:10;23.6;70.0
21121;DHT22;12519;43.318;21.898;2023-10-13T11:34:49;23.8;70.0
21121;DHT22;12519;43.318;21.898;2023-10-13T11:39:25;23.8;70.0
21121;DHT22;12519;43.318;21.898;2023-10-13T11:44:12;24.0;69.0
21121;DHT22;12519;43.318;21.898;2023-10-13T11:48:48;24.0;69.0
21121;DHT22;12519;43.318;21.898;2023-10-13T11:53:25;24.2;69.0
21121;DHT22;12519;43.318;21.898;2023-10-13T11:58:02;24.2;69.0
21121;DHT22;12519;43.318;21.898;2023-10-13T12:02:39;24.3;68.0
21121;DHT22;12519;43.318;21.898;2023-10-13T12:07:16;24.3;68.0
21121;DHT22;12519;43.318;21.898;2023-10-13T12:11:52;24.4;68.0
21121;DHT22;12519;43.318;21.898;2023-10-13T12:16:29;24.4;68.0
21121;DHT22;12519;43.318;21.898;2023-10-13T12:21:08;24.4;68.0
21121;DHT22;12519;43.318;21.898;2023-10-13T12:25:45;24.5;68.0
21121;DHT22;12519;43.318;21.898;2023-10-13T12:30:22;24.5;68.0
21121;DHT22;12519;43.318;21.898;2023-10-13T12:35:00;24.6;68.0
21121;DHT22;12519;43.318;21.898;2023-10-13T12:39:36;24.6;68.0
21121;DHT22;12519;43.318;21.898;2023-10-13T12:44:13;24.8;68.0
21121;DHT22;12519;43.318;21.898;2023-10-13T12:48:49;24.8;68.0
21121;DHT22;12519;43.318;21.898;2023-10-13T12:53:26;24.9;68.0
21121;DHT22;12519;43.318;21.898;2023-10-13T12:58:02;24.9;68.0
21121;DHT22;12519;43.318;21.898;2023-10-13T13:02:39;25.0;68.0
21121;DHT22;12519;43.318;21.898;2023-10-13T13:07:15;25.0;68.0
21121;DHT22;12519;43.318;21.898;2023-10-13T13:11:52;25.2;67.0
21121;DHT22;12519;43.318;21.898;2023-10-13T13:16:29;25.2;67.0
21121;DHT22;12519;43.318;21.898;2023-10-13T13:21:06;25.2;67.0
21121;DHT22;12519;43.318;21.898;2023-10-13T13:25:45;25.3;67.0
21121;DHT22;12519;43.318;21.898;2023-10-13T13:30:24;25.3;67.0
21121;DHT22;12519;43.318;21.898;2023-10-13T13:35:01;25.4;67.0
21121;DHT22;12519;43.318;21.898;2023-10-13T13:39:38;25.4;67.0
21121;DHT22;12519;43.318;21.898;2023-10-13T13:44:20;25.4;66.0
21121;DHT22;12519;43.318;21.898;2023-10-13T13:48:57;25.4;66.0
21121;DHT22;12519;43.318;21.898;2023-10-13T13:53:33;25.4;66.0
21121;DHT22;12519;43.318;21.898;2023-10-13T13:58:09;25.4;66.0
21121;DHT22;12519;43.318;21.898;2023-10-13T14:02:45;25.5;65.0
21121;DHT22;12519;43.318;21.898;2023-10-13T14:07:22;25.5;65.0
21121;DHT22;12519;43.318;21.898;2023-10-13T14:11:58;25.5;64.0
21121;DHT22;12519;43.318;21.898;2023-10-13T14:16:35;25.5;64.0
21121;DHT22;12519;43.318;21.898;2023-10-13T14:21:12;25.5;64.0
21121;DHT22;12519;43.318;21.898;2023-10-13T14:25:50;25.5;63.0
21121;DHT22;12519;43.318;21.898;2023-10-13T14:30:27;25.5;63.0
21121;DHT22;12519;43.318;21.898;2023-10-13T14:35:05;25.6;63.0
21121;DHT22;12519;43.318;21.898;2023-10-13T14:39:44;25.6;63.0
21121;DHT22;12519;43.318;21.898;2023-10-13T14:44:21;25.6;62.0
21121;DHT22;12519;43.318;21.898;2023-10-13T14:48:57;25.6;62.0
21121;DHT22;12519;43.318;21.898;2023-10-13T14:53:34;25.4;63.0
21121;DHT22;12519;43.318;21.898;2023-10-13T14:58:11;25.4;63.0
21121;DHT22;12519;43.318;21.898;2023-10-13T15:02:47;25.2;63.0
21121;DHT22;12519;43.318;21.898;2023-10-13T15:07:23;25.2;63.0
21121;DHT22;12519;43.318;21.898;2023-10-13T15:12:00;25.2;63.0
21121;DHT22;12519;43.318;21.898;2023-10-13T15:16:36;25.2;63.0
21121;DHT22;12519;43.318;21.898;2023-10-13T15:21:21;25.2;63.0
21121;DHT22;12519;43.318;21.898;2023-10-13T15:35:17;24.3;66.0
21121;DHT22;12519;43.318;21.898;2023-10-13T15:39:56;24.3;66.0
21121;DHT22;12519;43.318;21.898;2023-10-13T15:44:35;24.3;66.0
21121;DHT22;12519;43.318;21.898;2023-10-13T15:49:11;24.3;66.0
21121;DHT22;12519;43.318;21.898;2023-10-13T15:53:49;24.1;67.0
21121;DHT22;12519;43.318;21.898;2023-10-13T15:58:26;24.1;67.0
21121;DHT22;12519;43.318;21.898;2023-10-13T16:03:05;23.9;68.0
21121;DHT22;12519;43.318;21.898;2023-10-13T16:07:41;23.9;68.0
21121;DHT22;12519;43.318;21.898;2023-10-13T16:12:18;23.6;69.0
21121;DHT22;12519;43.318;21.898;2023-10-13T16:16:55;23.6;69.0
21121;DHT22;12519;43.318;21.898;2023-10-13T16:21:32;23.6;69.0
21121;DHT22;12519;43.318;21.898;2023-10-13T16:26:09;23.4;70.0
21121;DHT22;12519;43.318;21.898;2023-10-13T16:30:46;23.4;70.0
21121;DHT22;12519;43.318;21.898;2023-10-13T16:35:22;23.2;70.0
21121;DHT22;12519;43.318;21.898;2023-10-13T16:39:59;23.2;70.0
21121;DHT22;12519;43.318;21.898;2023-10-13T16:44:35;23.0;71.0
21121;DHT22;12519;43.318;21.898;2023-10-13T16:49:12;23.0;71.0
21121;DHT22;12519;43.318;21.898;2023-10-13T16:53:48;22.7;72.0
21121;DHT22;12519;43.318;21.898;2023-10-13T16:58:25;22.7;72.0
21121;DHT22;12519;43.318;21.898;2023-10-13T17:03:01;22.4;73.0
21121;DHT22;12519;43.318;21.898;2023-10-13T17:07:39;22.4;73.0
21121;DHT22;12519;43.318;21.898;2023-10-13T17:12:16;22.2;74.0
21121;DHT22;12519;43.318;21.898;2023-10-13T17:16:52;22.2;74.0
21121;DHT22;12519;43.318;21.898;2023-10-13T17:21:28;22.2;74.0
21121;DHT22;12519;43.318;21.898;2023-10-13T17:26:05;21.9;75.0
21121;DHT22;12519;43.318;21.898;2023-10-13T17:30:42;21.9;75.0
21121;DHT22;12519;43.318;21.898;2023-10-13T17:35:20;21.8;76.0
21121;DHT22;12519;43.318;21.898;2023-10-13T17:40:00;21.8;76.0
21121;DHT22;12519;43.318;21.898;2023-10-13T17:44:37;21.6;76.0
21121;DHT22;12519;43.318;21.898;2023-10-13T17:49:13;21.6;76.0
21121;DHT22;12519;43.318;21.898;2023-10-13T17:53:49;21.5;76.0
21121;DHT22;12519;43.318;21.898;2023-10-13T17:58:25;21.5;76.0
21121;DHT22;12519;43.318;21.898;2023-10-13T18:03:02;21.3;76.0
21121;DHT22;12519;43.318;21.898;2023-10-13T18:07:40;21.3;76.0
21121;DHT22;12519;43.318;21.898;2023-10-13T18:12:16;21.2;77.0
21121;DHT22;12519;43.318;21.898;2023-10-13T18:16:53;21.2;77.0
21121;DHT22;12519;43.318;21.898;2023-10-13T18:21:29;21.2;77.0
21121;DHT22;12519;43.318;21.898;2023-10-13T18:26:06;21.2;77.0
21121;DHT22;12519;43.318;21.898;2023-10-13T18:30:43;21.2;77.0
21121;DHT22;12519;43.318;21.898;2023-10-13T18:35:23;21.0;77.0
21121;DHT22;12519;43.318;21.898;2023-10-13T18:40:00;21.0;77.0
21121;DHT22;12519;43.318;21.898;2023-10-13T18:44:40;20.8;78.0
21121;DHT22;12519;43.318;21.898;2023-10-13T18:49:17;20.8;78.0
21121;DHT22;12519;43.318;21.898;2023-10-13T18:53:54;20.6;78.0
21121;DHT22;12519;43.318;21.898;2023-10-13T18:58:31;20.6;78.0
21121;DHT22;12519;43.318;21.898;2023-10-13T19:03:07;20.5;79.0
21121;DHT22;12519;43.318;21.898;2023-10-13T19:07:44;20.5;79.0
21121;DHT22;12519;43.318;21.898;2023-10-13T19:12:21;20.2;80.0
21121;DHT22;12519;43.318;21.898;2023-10-13T19:16:57;20.2;80.0
21121;DHT22;12519;43.318;21.898;2023-10-13T19:21:35;20.2;80.0
21121;DHT22;12519;43.318;21.898;2023-10-13T19:26:12;20.0;81.0
21121;DHT22;12519;43.318;21.898;2023-10-13T19:30:50;20.0;81.0
21121;DHT22;12519;43.318;21.898;2023-10-13T19:35:26;19.9;81.0
21121;DHT22;12519;43.318;21.898;2023-10-13T19:40:05;19.9;81.0
21121;DHT22;12519;43.318;21.898;2023-10-13T19:44:43;19.8;81.0
21121;DHT22;12519;43.318;21.898;2023-10-13T19:49:20;19.8;81.0
21121;DHT22;12519;43.318;21.898;2023-10-13T19:54:01;19.8;81.0
21121;DHT22;12519;43.318;21.898;2023-10-13T19:58:40;19.8;81.0
21121;DHT22;12519;43.318;21.898;2023-10-13T20:12:29;19.7;82.0
21121;DHT22;12519;43.318;21.898;2023-10-13T20:17:06;19.7;82.0
21121;DHT22;12519;43.318;21.898;2023-10-13T20:21:43;19.7;82.0
21121;DHT22;12519;43.318;21.898;2023-10-13T20:26:20;19.7;82.0
21121;DHT22;12519;43.318;21.898;2023-10-13T20:31:00;19.7;82.0
21121;DHT22;12519;43.318;21.898;2023-10-13T20:35:36;19.5;82.0
21121;DHT22;12519;43.318;21.898;2023-10-13T20:40:21;19.5;82.0
21121;DHT22;12519;43.318;21.898;2023-10-13T20:44:57;19.4;82.0
21121;DHT22;12519;43.318;21.898;2023-10-13T20:49:34;19.4;82.0
21121;DHT22;12519;43.318;21.898;2023-10-13T20:54:10;19.2;83.0
21121;DHT22;12519;43.318;21.898;2023-10-13T20:58:46;19.2;83.0
21121;DHT22;12519;43.318;21.898;2023-10-13T21:03:24;19.1;83.0
21121;DHT22;12519;43.318;21.898;2023-10-13T21:08:02;19.1;83.0
21121;DHT22;12519;43.318;21.898;2023-10-13T21:12:41;19.0;83.0
21121;DHT22;12519;43.318;21.898;2023-10-13T21:17:23;19.0;83.0
21121;DHT22;12519;43.318;21.898;2023-10-13T21:22:00;19.0;83.0
21121;DHT22;12519;43.318;21.898;2023-10-13T21:26:37;18.8;83.0
21121;DHT22;12519;43.318;21.898;2023-10-13T21:31:18;18.8;83.0
21121;DHT22;12519;43.318;21.898;2023-10-13T21:35:55;18.6;84.0
21121;DHT22;12519;43.318;21.898;2023-10-13T21:40:32;18.6;84.0
21121;DHT22;12519;43.318;21.898;2023-10-13T21:45:10;18.3;84.0
21121;DHT22;12519;43.318;21.898;2023-10-13T21:49:47;18.3;84.0
21121;DHT22;12519;43.318;21.898;2023-10-13T21:54:24;18.2;84.0
21121;DHT22;12519;43.318;21.898;2023-10-13T21:59:00;18.2;84.0
21121;DHT22;12519;43.318;21.898;2023-10-13T22:03:37;18.2;85.0
21121;DHT22;12519;43.318;21.898;2023-10-13T22:08:13;18.2;85.0
21121;DHT22;12519;43.318;21.898;2023-10-13T22:12:52;18.2;85.0
21121;DHT22;12519;43.318;21.898;2023-10-13T22:17:33;18.2;85.0
21121;DHT22;12519;43.318;21.898;2023-10-13T22:22:09;18.2;85.0
21121;DHT22;12519;43.318;21.898;2023-10-13T22:26:45;18.1;85.0
21121;DHT22;12519;43.318;21.898;2023-10-13T22:31:23;18.1;85.0
21121;DHT22;12519;43.318;21.898;2023-10-13T22:36:00;18.0;85.0
21121;DHT22;12519;43.318;21.898;2023-10-13T22:40:37;18.0;85.0
21121;DHT22;12519;43.318;21.898;2023-10-13T22:45:16;17.8;85.0
21121;DHT22;12519;43.318;21.898;2023-10-13T22:49:54;17.8;85.0
21121;DHT22;12519;43.318;21.898;2023-10-13T22:54:31;17.6;85.0
21121;DHT22;12519;43.318;21.898;2023-10-13T22:59:08;17.6;85.0
21121;DHT22;12519;43.318;21.898;2023-10-13T23:03:46;17.4;86.0
21121;DHT22;12519;43.318;21.898;2023-10-13T23:08:28;17.4;86.0
21121;DHT22;12519;43.318;21.898;2023-10-13T23:13:09;17.2;86.0
21121;DHT22;12519;43.318;21.898;2023-10-13T23:17:45;17.2;86.0
21121;DHT22;12519;43.318;21.898;2023-10-13T23:22:21;17.2;86.0
21121;DHT22;12519;43.318;21.898;2023-10-13T23:26:58;17.1;87.0
21121;DHT22;12519;43.318;21.898;2023-10-13T23:31:34;17.1;87.0
21121;DHT22;12519;43.318;21.898;2023-10-13T23:36:11;17.0;87.0
21121;DHT22;12519;43.318;21.898;2023-10-13T23:40:49;17.0;87.0
21121;DHT22;12519;43.318;21.898;2023-10-13T23:45:25;16.9;87.0
21121;DHT22;12519;43.318;21.898;2023-10-13T23:50:02;16.9;87.0
21121;DHT22;12519;43.318;21.898;2023-10-13T23:54:39;16.8;87.0
21121;DHT22;12519;43.318;21.898;2023-10-13T23:59:16;16.8;87.0
